Time;durP1;ratioP1;P1;durP2;ratioP2;P2;SDS_P1;SDS_P2;PMS_P1;PMS_P2;Temp;Humidity;BMP_temperature;BMP_pressure;BME280_temperature;BME280_humidity;BME280_pressure;Samples;Min_cycle;Max_cycle;Signal;HPM_P1;HPM_P2
2021/04/30 00:00:22;;;;;;;33.68;17.68;;;;;;;14.27;53.42;98066.44;262545;1105;115014;-71
2021/04/30 00:05:45;;;;;;;33.30;16.93;;;;;;;14.24;53.72;98083.62;262533;1100;115476;-71
2021/04/30 00:10:48;;;;;;;31.05;17.18;;;;;;;14.18;53.26;98086.85;262515;1106;115410;-73
2021/04/30 00:15:51;;;;;;;29.25;17.73;;;;;;;14.31;54.14;98084.73;262490;1100;115819;-71
2021/04/30 00:20:57;;;;;;;32.73;17.93;;;;;;;14.48;53.57;98076.97;262398;1105;115596;-76
2021/04/30 00:26:06;;;;;;;32.53;18.73;;;;;;;14.66;53.73;98075.27;262518;1100;115298;-76
2021/04/30 00:31:09;;;;;;;29.35;17.63;;;;;;;14.77;53.36;98067.05;262592;1105;115571;-75
2021/04/30 00:36:12;;;;;;;31.05;18.15;;;;;;;14.81;53.45;98070.28;262480;1100;115391;-72
2021/04/30 00:41:16;;;;;;;28.93;18.90;;;;;;;14.77;53.27;98083.12;262549;1105;115079;-75
2021/04/30 00:46:31;;;;;;;37.78;21.45;;;;;;;14.65;52.93;98082.45;262539;1102;115332;-74
2021/04/30 00:51:35;;;;;;;42.28;21.40;;;;;;;14.51;53.49;98092.78;262620;1105;115087;-75
2021/04/30 00:56:38;;;;;;;40.43;22.28;;;;;;;14.36;53.41;98095.84;262363;1100;115273;-73
2021/04/30 01:01:41;;;;;;;33.55;20.18;;;;;;;14.29;54.01;98113.46;262541;1105;115062;-72
2021/04/30 01:06:44;;;;;;;30.53;18.20;;;;;;;14.35;54.22;98126.28;262532;1100;115074;-73
2021/04/30 01:11:48;;;;;;;28.45;18.18;;;;;;;14.48;54.30;98138.55;262540;1105;115148;-73
2021/04/30 01:16:52;;;;;;;30.55;17.80;;;;;;;14.60;53.77;98148.13;262772;1100;114966;-72
2021/04/30 01:21:56;;;;;;;30.65;18.50;;;;;;;14.71;54.04;98160.52;262859;1104;115206;-72
2021/04/30 01:26:59;;;;;;;33.43;19.80;;;;;;;14.76;55.02;98153.76;262525;1100;115028;-74
2021/04/30 01:32:02;;;;;;;33.45;18.43;;;;;;;14.80;55.27;98155.16;262485;1106;115154;-75
2021/04/30 01:37:05;;;;;;;29.63;16.68;;;;;;;14.77;55.63;98166.16;262633;1100;115369;-72
2021/04/30 01:42:09;;;;;;;26.60;15.88;;;;;;;14.73;56.00;98162.08;262606;1105;115255;-73
2021/04/30 01:47:16;;;;;;;25.85;16.18;;;;;;;14.59;57.03;98165.20;262729;1099;115260;-72
2021/04/30 01:52:21;;;;;;;26.30;15.80;;;;;;;14.46;57.71;98178.83;262580;1102;115150;-72
2021/04/30 01:57:24;;;;;;;27.47;16.77;;;;;;;14.27;57.68;98181.52;262611;1100;115439;-74
2021/04/30 02:02:27;;;;;;;26.68;17.38;;;;;;;14.04;57.86;98175.56;262756;1105;115208;-72
2021/04/30 02:07:30;;;;;;;27.35;17.78;;;;;;;13.87;58.37;98161.88;262662;1100;115293;-72
2021/04/30 02:12:32;;;;;;;29.10;17.25;;;;;;;13.80;59.55;98160.73;262585;1105;114952;-74
2021/04/30 02:17:37;;;;;;;27.83;18.20;;;;;;;13.80;59.76;98166.08;262559;1100;115144;-74
2021/04/30 02:22:40;;;;;;;33.68;19.00;;;;;;;13.78;59.77;98162.69;262567;1104;115109;-74
2021/04/30 02:27:43;;;;;;;28.28;17.85;;;;;;;13.80;60.81;98181.29;262552;1100;115248;-70
2021/04/30 02:32:48;;;;;;;26.50;18.28;;;;;;;13.85;60.14;98182.55;262549;1105;115296;-70
2021/04/30 02:37:52;;;;;;;28.83;19.18;;;;;;;13.89;60.70;98175.97;262582;1100;115093;-73
2021/04/30 02:42:57;;;;;;;28.10;17.60;;;;;;;13.87;60.58;98177.92;262700;1104;115293;-70
2021/04/30 02:48:01;;;;;;;28.25;16.83;;;;;;;13.92;60.77;98178.34;262514;1100;115245;-70
2021/04/30 02:53:04;;;;;;;24.53;15.93;;;;;;;13.99;61.20;98185.82;262532;1106;115866;-71
2021/04/30 02:58:06;;;;;;;24.68;15.90;;;;;;;14.03;61.22;98182.75;262545;1101;115187;-73
2021/04/30 03:03:09;;;;;;;25.48;17.03;;;;;;;14.03;61.73;98184.55;262494;1105;115038;-73
2021/04/30 03:08:12;;;;;;;25.50;16.70;;;;;;;14.02;61.13;98194.41;262478;1102;115272;-71
2021/04/30 03:13:15;;;;;;;25.00;16.78;;;;;;;14.00;61.59;98193.73;262564;1104;115049;-71
2021/04/30 03:18:19;;;;;;;25.40;15.65;;;;;;;14.02;62.19;98190.90;262563;1102;115268;-71
2021/04/30 03:23:21;;;;;;;24.58;15.78;;;;;;;14.04;61.96;98194.30;262565;1105;115459;-73
2021/04/30 03:28:24;;;;;;;24.03;15.58;;;;;;;14.07;61.96;98213.59;262532;1101;115369;-74
2021/04/30 03:33:27;;;;;;;22.50;15.20;;;;;;;14.06;61.52;98214.59;262578;1105;115043;-71
2021/04/30 03:38:30;;;;;;;23.15;15.63;;;;;;;14.06;61.95;98229.77;262703;1101;114987;-74
2021/04/30 03:43:33;;;;;;;24.88;16.38;;;;;;;14.05;62.25;98225.41;262823;1105;115269;-70
2021/04/30 03:48:36;;;;;;;21.80;14.75;;;;;;;14.05;62.26;98222.73;262637;1101;115314;-71
2021/04/30 03:53:39;;;;;;;22.90;14.43;;;;;;;14.03;62.84;98236.26;262566;1106;115233;-71
2021/04/30 03:58:42;;;;;;;20.68;13.75;;;;;;;14.06;62.38;98240.47;262496;1102;115665;-71
2021/04/30 04:03:45;;;;;;;20.23;13.05;;;;;;;14.14;63.02;98246.00;262644;1105;115340;-71
2021/04/30 04:08:48;;;;;;;19.88;12.55;;;;;;;14.15;62.61;98248.52;262637;1102;115290;-71
2021/04/30 04:13:51;;;;;;;17.95;12.18;;;;;;;14.15;62.50;98245.84;262615;1105;115113;-71
2021/04/30 04:18:54;;;;;;;19.27;12.07;;;;;;;14.12;63.30;98240.77;262576;1100;115191;-71
2021/04/30 04:23:57;;;;;;;19.80;12.68;;;;;;;14.05;63.39;98255.67;262542;1105;115156;-71
2021/04/30 04:29:00;;;;;;;18.25;12.80;;;;;;;14.04;63.29;98261.18;262543;1100;115757;-73
2021/04/30 04:34:04;;;;;;;17.80;12.05;;;;;;;14.06;63.29;98256.52;262484;1105;115045;-71
2021/04/30 04:39:07;;;;;;;20.55;12.58;;;;;;;14.13;63.53;98271.04;262667;1102;114999;-75
2021/04/30 04:44:10;;;;;;;19.87;13.60;;;;;;;14.14;63.28;98280.78;262557;1104;115237;-72
2021/04/30 04:49:13;;;;;;;17.55;12.05;;;;;;;14.12;63.60;98282.73;262573;1101;115538;-70
2021/04/30 04:54:16;;;;;;;17.47;11.83;;;;;;;14.10;63.72;98292.75;262570;1106;115218;-70
2021/04/30 04:59:19;;;;;;;17.70;12.40;;;;;;;14.07;63.51;98280.48;262619;1101;115414;-70
2021/04/30 05:04:22;;;;;;;14.25;10.55;;;;;;;14.07;63.66;98301.89;262592;1105;117276;-71
2021/04/30 05:09:27;;;;;;;15.13;9.75;;;;;;;14.11;64.22;98297.11;262610;1100;114999;-70
2021/04/30 05:14:30;;;;;;;15.20;10.53;;;;;;;14.16;63.89;98303.76;262591;1102;115259;-74
2021/04/30 05:19:42;;;;;;;15.15;10.05;;;;;;;14.19;63.85;98306.13;262484;1100;115533;-74
2021/04/30 05:24:45;;;;;;;15.63;10.88;;;;;;;14.16;64.41;98306.44;262594;1105;115362;-74
2021/04/30 05:29:48;;;;;;;18.98;11.33;;;;;;;14.13;63.87;98328.11;262640;1101;115137;-74
2021/04/30 05:34:51;;;;;;;16.30;10.95;;;;;;;14.10;64.55;98323.02;262427;1105;115213;-75
2021/04/30 05:39:57;;;;;;;15.78;9.98;;;;;;;14.12;64.44;98328.22;262536;1100;115073;-73
2021/04/30 05:45:02;;;;;;;14.73;9.88;;;;;;;14.19;64.10;98335.57;262617;1105;115025;-72
2021/04/30 05:50:06;;;;;;;13.45;9.73;;;;;;;14.30;64.84;98334.64;262675;1100;114956;-74
2021/04/30 05:55:10;;;;;;;17.83;10.70;;;;;;;14.40;65.00;98345.36;262647;1105;114859;-75
2021/04/30 06:00:14;;;;;;;16.38;11.10;;;;;;;14.43;64.49;98347.77;262566;1100;115002;-74
2021/04/30 06:05:18;;;;;;;18.00;12.30;;;;;;;14.42;64.93;98338.05;262588;1105;115064;-75
2021/04/30 06:10:22;;;;;;;17.43;11.48;;;;;;;14.41;64.92;98358.63;262631;1101;114956;-75
2021/04/30 06:15:27;;;;;;;19.50;12.20;;;;;;;14.46;65.06;98354.69;262691;1105;116022;-75
2021/04/30 06:20:30;;;;;;;18.95;11.98;;;;;;;14.54;64.45;98353.06;262633;1100;115164;-73
2021/04/30 06:25:33;;;;;;;19.03;12.98;;;;;;;14.58;64.86;98361.67;262730;1104;115067;-73
2021/04/30 06:30:36;;;;;;;20.45;13.43;;;;;;;14.64;64.83;98371.84;262609;1100;115261;-73
2021/04/30 06:35:40;;;;;;;18.93;13.20;;;;;;;14.67;64.13;98374.21;262651;1105;115399;-74
2021/04/30 06:40:43;;;;;;;19.90;14.00;;;;;;;14.69;64.24;98377.61;262543;1100;115008;-74
2021/04/30 06:45:46;;;;;;;40.38;22.33;;;;;;;14.73;64.08;98380.86;262620;1105;115146;-74
2021/04/30 06:50:49;;;;;;;20.77;13.87;;;;;;;14.76;63.81;98377.91;262561;1100;115299;-76
2021/04/30 06:55:52;;;;;;;20.10;12.95;;;;;;;14.79;64.33;98378.48;262578;1106;115187;-75
2021/04/30 07:00:55;;;;;;;21.25;14.13;;;;;;;14.86;64.18;98376.94;262626;1101;115147;-75
2021/04/30 07:05:58;;;;;;;23.13;15.27;;;;;;;14.87;63.65;98385.82;262591;1103;115232;-75
2021/04/30 07:11:01;;;;;;;26.78;15.60;;;;;;;14.86;64.11;98398.38;262928;1105;114896;-75
2021/04/30 07:16:05;;;;;;;24.55;15.85;;;;;;;14.89;63.40;98387.38;262715;1100;115459;-76
2021/04/30 07:21:09;;;;;;;25.50;16.93;;;;;;;14.95;63.69;98395.87;262562;1104;115318;-74
2021/04/30 07:26:11;;;;;;;25.98;17.25;;;;;;;15.05;63.27;98394.89;262528;1102;115264;-75
2021/04/30 07:31:15;;;;;;;24.20;15.40;;;;;;;15.27;63.79;98383.05;262260;1106;115151;-76
2021/04/30 07:36:18;;;;;;;26.78;14.30;;;;;;;15.56;63.02;98382.20;262417;1102;115647;-76
2021/04/30 07:41:21;;;;;;;27.40;17.30;;;;;;;16.30;65.21;98390.38;262567;1105;115618;-78
2021/04/30 07:46:28;;;;;;;25.40;14.30;;;;;;;16.73;62.43;98393.42;262539;1101;115049;-75
2021/04/30 07:51:31;;;;;;;22.98;14.68;;;;;;;16.76;61.54;98388.63;262622;1106;115152;-69
2021/04/30 07:56:34;;;;;;;15.53;11.48;;;;;;;16.84;60.77;98387.02;262525;1102;115209;-72
2021/04/30 08:01:37;;;;;;;21.58;11.50;;;;;;;16.68;59.83;98393.88;262573;1105;115952;-70
2021/04/30 08:06:41;;;;;;;16.45;10.80;;;;;;;16.41;59.18;98396.56;262512;1100;115189;-71
2021/04/30 08:11:44;;;;;;;17.28;10.78;;;;;;;16.23;58.87;98399.15;262526;1105;115353;-71
2021/04/30 08:16:47;;;;;;;20.20;10.95;;;;;;;16.09;58.68;98406.67;262408;1101;115159;-70
2021/04/30 08:21:50;;;;;;;19.95;12.15;;;;;;;15.98;58.69;98414.91;262498;1104;115032;-73
2021/04/30 08:26:53;;;;;;;21.03;11.60;;;;;;;15.81;58.41;98423.70;262525;1102;115051;-67
2021/04/30 08:31:56;;;;;;;21.90;11.63;;;;;;;15.68;58.42;98434.72;262642;1105;115159;-67
2021/04/30 08:36:59;;;;;;;24.28;12.08;;;;;;;15.64;58.46;98433.28;262472;1102;115565;-71
2021/04/30 08:42:02;;;;;;;17.45;10.88;;;;;;;15.59;58.65;98431.04;262623;1105;115766;-71
2021/04/30 08:47:06;;;;;;;32.63;18.03;;;;;;;15.61;58.51;98431.72;262758;1100;115179;-73
2021/04/30 08:52:11;;;;;;;29.57;18.60;;;;;;;15.79;58.43;98437.27;262680;1106;115237;-78
2021/04/30 08:57:19;;;;;;;;;;;;;;;15.96;58.01;98434.82;263115;1100;115711;-76
2021/04/30 09:02:24;;;;;;;16.00;10.23;;;;;;;16.04;57.43;98451.91;263366;1104;102362;-80
2021/04/30 09:07:28;;;;;;;13.60;8.75;;;;;;;16.10;57.25;98450.50;262905;1101;114805;-76
2021/04/30 09:12:32;;;;;;;13.93;9.23;;;;;;;16.13;56.77;98447.50;263110;1104;114803;-75
2021/04/30 09:17:36;;;;;;;13.58;8.25;;;;;;;16.16;56.52;98449.89;263167;1099;114990;-79
2021/04/30 09:22:42;;;;;;;13.70;9.65;;;;;;;16.20;56.35;98455.82;262900;1104;114799;-80
2021/04/30 09:27:47;;;;;;;14.23;10.37;;;;;;;16.18;56.29;98464.03;262949;1100;115144;-80
2021/04/30 09:33:18;;;;;;;20.83;10.77;;;;;;;16.22;56.20;98449.32;262984;1104;115350;-80
2021/04/30 09:38:32;;;;;;;14.35;10.38;;;;;;;16.29;56.26;98447.74;262963;1102;114951;-81
2021/04/30 09:43:50;;;;;;;19.58;10.28;;;;;;;16.40;56.42;98454.77;263007;1104;114974;-81
2021/04/30 09:49:01;;;;;;;13.93;9.33;;;;;;;16.58;56.41;98443.28;262684;1101;115136;-81
2021/04/30 09:54:27;;;;;;;12.93;7.78;;;;;;;16.71;55.54;98444.64;262835;1104;114909;-82
2021/04/30 09:59:31;;;;;;;14.03;7.73;;;;;;;16.84;55.28;98444.30;263027;1102;115065;-79
2021/04/30 10:04:38;;;;;;;11.60;6.78;;;;;;;17.03;54.38;98454.11;262616;1106;115409;-78
2021/04/30 10:09:46;;;;;;;10.10;6.08;;;;;;;17.23;53.98;98441.39;262818;1104;114838;-77
2021/04/30 10:14:50;;;;;;;10.13;6.53;;;;;;;17.50;53.38;98440.49;263183;1104;114949;-79
2021/04/30 10:19:55;;;;;;;10.23;6.43;;;;;;;17.65;52.15;98432.71;262617;1101;115239;-79
2021/04/30 10:24:59;;;;;;;;;;;;;;;17.80;51.32;98441.09;262581;1105;114995;-73
2021/04/30 10:30:23;;;;;;;11.08;6.85;;;;;;;17.94;51.42;98440.56;263059;1100;101368;-78
2021/04/30 10:35:29;;;;;;;10.13;5.80;;;;;;;18.00;50.91;98441.77;262932;1099;114644;-82
2021/04/30 10:40:50;;;;;;;15.93;6.10;;;;;;;18.15;50.66;98424.89;263037;1104;117052;-88
2021/04/30 10:46:07;;;;;;;7.63;5.50;;;;;;;18.34;50.18;98423.84;263109;1099;114972;-85
2021/04/30 10:51:15;;;;;;;8.10;5.83;;;;;;;18.46;49.59;98410.08;263524;1104;115692;-82
2021/04/30 10:56:32;;;;;;;10.75;6.68;;;;;;;18.57;49.53;98409.80;263049;1099;114994;-83
2021/04/30 11:01:37;;;;;;;10.73;6.00;;;;;;;18.77;49.38;98402.33;263470;1104;115126;-81
2021/04/30 11:06:52;;;;;;;9.70;6.35;;;;;;;18.89;48.62;98401.88;263091;1099;115113;-80
2021/04/30 11:11:58;;;;;;;9.75;6.55;;;;;;;18.93;48.44;98402.39;262973;1104;114993;-80
2021/04/30 11:17:02;;;;;;;9.45;6.15;;;;;;;19.06;48.27;98401.93;263241;1099;114889;-80
2021/04/30 11:22:14;;;;;;;7.75;5.83;;;;;;;19.27;48.28;98409.56;262579;1106;114824;-74
2021/04/30 11:27:17;;;;;;;10.45;6.00;;;;;;;19.45;47.74;98396.75;262801;1100;115233;-80
2021/04/30 11:32:25;;;;;;;7.73;5.30;;;;;;;19.59;47.06;98398.78;263469;1104;115048;-75
2021/04/30 11:37:34;;;;;;;11.60;4.63;;;;;;;19.70;46.51;98389.56;262889;1099;114951;-74
2021/04/30 11:43:06;;;;;;;5.67;4.00;;;;;;;19.92;45.90;98390.71;263056;1104;114812;-75
2021/04/30 11:48:11;;;;;;;9.03;4.63;;;;;;;20.13;45.57;98389.33;263055;1100;114864;-75
2021/04/30 11:53:15;;;;;;;5.88;4.38;;;;;;;20.31;44.75;98392.65;263035;1104;114791;-79
2021/04/30 11:58:19;;;;;;;7.08;4.65;;;;;;;20.40;43.72;98391.63;263084;1099;114827;-79
2021/04/30 12:03:21;;;;;;;9.55;4.40;;;;;;;20.44;43.90;98381.30;263386;1104;114863;-80
2021/04/30 12:08:26;;;;;;;8.73;4.20;;;;;;;20.69;43.53;98392.92;263109;1099;114783;-77
2021/04/30 12:13:30;;;;;;;4.88;4.03;;;;;;;20.87;43.43;98395.37;263091;1104;115541;-75
2021/04/30 12:18:34;;;;;;;7.08;4.38;;;;;;;21.08;42.68;98394.74;263062;1099;114485;-75
2021/04/30 12:23:38;;;;;;;6.20;3.60;;;;;;;21.30;41.95;98399.36;263126;1104;114734;-78
2021/04/30 12:28:42;;;;;;;5.00;3.20;;;;;;;21.43;41.61;98387.94;263008;1098;115023;-78
2021/04/30 12:33:48;;;;;;;5.88;3.03;;;;;;;21.55;40.15;98397.34;263022;1104;114971;-78
2021/04/30 12:39:16;;;;;;;6.05;3.00;;;;;;;21.64;39.81;98384.59;263434;1100;114654;-73
2021/04/30 12:44:20;;;;;;;7.35;3.03;;;;;;;21.73;39.15;98375.34;263455;1104;114759;-80
2021/04/30 12:49:23;;;;;;;5.35;2.73;;;;;;;21.87;38.96;98369.12;263054;1099;114917;-82
2021/04/30 12:54:31;;;;;;;4.90;2.88;;;;;;;22.01;38.20;98366.63;263454;1104;114613;-82
2021/04/30 12:59:34;;;;;;;3.63;2.90;;;;;;;22.06;37.83;98365.05;263043;1099;115001;-78
2021/04/30 13:04:46;;;;;;;6.90;2.78;;;;;;;22.23;37.52;98364.92;263462;1104;114886;-77
2021/04/30 13:09:49;;;;;;;6.00;2.80;;;;;;;22.31;37.42;98353.97;263122;1099;114835;-76
2021/04/30 13:14:57;;;;;;;4.80;2.67;;;;;;;22.47;37.21;98359.21;262859;1104;114936;-82
2021/04/30 13:20:31;;;;;;;5.05;2.60;;;;;;;22.70;36.80;98344.70;262921;1099;115105;-80
2021/04/30 13:25:40;;;;;;;5.00;2.40;;;;;;;22.98;36.44;98334.83;263204;1104;114922;-79
2021/04/30 13:30:46;;;;;;;4.93;2.78;;;;;;;23.24;36.47;98330.73;263016;1099;115092;-77
2021/04/30 13:35:52;;;;;;;5.68;2.85;;;;;;;23.37;35.93;98334.42;262603;1106;115583;-78
2021/04/30 13:41:10;;;;;;;4.28;2.53;;;;;;;23.52;35.86;98323.47;263146;1099;115267;-77
2021/04/30 13:46:13;;;;;;;5.60;2.70;;;;;;;23.56;34.49;98329.34;263408;1104;114795;-77
2021/04/30 13:51:17;;;;;;;;;;;;;;;23.38;33.66;98308.94;263127;1099;114567;-77
2021/04/30 13:56:21;;;;;;;5.18;2.90;;;;;;;23.10;33.61;98324.33;263203;1104;101223;-80
2021/04/30 14:01:24;;;;;;;;;;;;;;;23.06;34.03;98320.30;263491;1099;114749;-77
2021/04/30 14:06:28;;;;;;;4.00;2.40;;;;;;;23.20;34.08;98322.14;263308;1104;101793;-71
2021/04/30 14:11:31;;;;;;;3.73;2.45;;;;;;;23.20;33.39;98313.13;263357;1099;115160;-71
2021/04/30 14:16:34;;;;;;;6.95;2.38;;;;;;;23.50;33.78;98322.81;263133;1104;114565;-75
2021/04/30 14:21:38;;;;;;;6.33;2.70;;;;;;;23.72;33.33;98320.13;263398;1098;114610;-84
2021/04/30 14:26:44;;;;;;;3.58;2.13;;;;;;;23.79;32.75;98326.44;263480;1104;114490;-83
2021/04/30 14:31:47;;;;;;;;;;;;;;;23.74;32.11;98312.59;263102;1098;115112;-84
2021/04/30 14:36:50;;;;;;;6.23;2.37;;;;;;;23.58;32.02;98302.84;263230;1104;100922;-81
2021/04/30 14:41:54;;;;;;;5.75;2.30;;;;;;;23.43;31.88;98304.78;262965;1099;114446;-80
2021/04/30 14:46:57;;;;;;;3.03;2.13;;;;;;;23.21;31.50;98307.52;263453;1104;114896;-80
2021/04/30 14:52:01;;;;;;;4.05;2.00;;;;;;;22.91;31.79;98306.75;263175;1104;114767;-81
2021/04/30 14:57:05;;;;;;;5.48;1.95;;;;;;;22.55;31.46;98306.73;263130;1104;114771;-84
2021/04/30 15:02:09;;;;;;;3.03;2.25;;;;;;;22.22;31.14;98317.16;263108;1099;114880;-78
2021/04/30 15:07:12;;;;;;;4.25;2.08;;;;;;;21.88;31.39;98326.64;263145;1104;114948;-78
2021/04/30 15:12:15;;;;;;;5.98;2.50;;;;;;;21.63;31.54;98323.30;263177;1099;114911;-78
2021/04/30 15:17:18;;;;;;;5.05;2.25;;;;;;;21.43;31.69;98317.55;263146;1104;114200;-71
2021/04/30 15:22:21;;;;;;;4.60;2.03;;;;;;;21.27;31.52;98318.52;263147;1099;114606;-71
2021/04/30 15:27:25;;;;;;;4.68;1.80;;;;;;;21.14;31.36;98315.56;263496;1104;114958;-78
2021/04/30 15:32:28;;;;;;;8.23;2.43;;;;;;;21.13;31.42;98322.84;263153;1099;114688;-76
2021/04/30 15:37:33;;;;;;;4.03;2.28;;;;;;;21.17;31.62;98312.50;263165;1104;114601;-78
2021/04/30 15:42:36;;;;;;;3.90;1.90;;;;;;;21.41;32.07;98296.09;262788;1100;114925;-71
2021/04/30 15:47:39;;;;;;;4.53;2.18;;;;;;;21.82;31.70;98295.70;263165;1104;114639;-70
2021/04/30 15:52:43;;;;;;;4.60;2.30;;;;;;;22.29;31.29;98302.66;262754;1100;114752;-73
2021/04/30 15:57:46;;;;;;;3.48;2.30;;;;;;;22.65;30.69;98296.42;262607;1107;114768;-71
2021/04/30 16:02:49;;;;;;;5.60;2.63;;;;;;;22.84;30.75;98297.70;262653;1100;114550;-78
2021/04/30 16:07:53;;;;;;;3.40;2.08;;;;;;;22.94;31.34;98292.00;263439;1104;114622;-71
2021/04/30 16:12:56;;;;;;;8.03;2.90;;;;;;;23.10;31.21;98291.75;262654;1100;114806;-78
2021/04/30 16:17:59;;;;;;;8.05;2.43;;;;;;;23.15;31.28;98294.72;263474;1104;114454;-79
2021/04/30 16:23:02;;;;;;;6.98;2.73;;;;;;;22.88;30.85;98288.97;262728;1100;114804;-78
2021/04/30 16:28:07;;;;;;;8.43;2.30;;;;;;;22.52;31.05;98291.70;263486;1104;114671;-71
2021/04/30 16:33:20;;;;;;;;;;;;;;;22.19;31.17;98302.11;263145;1100;115134;-77
2021/04/30 16:38:24;;;;;;;6.43;2.83;;;;;;;21.87;31.37;98295.13;263558;1104;101818;-71
2021/04/30 16:43:26;;;;;;;5.15;2.80;;;;;;;21.55;31.43;98293.61;263110;1099;114713;-75
2021/04/30 16:48:48;;;;;;;3.58;2.40;;;;;;;21.30;31.60;98292.92;263227;1104;114345;-78
2021/04/30 16:53:51;;;;;;;5.48;2.60;;;;;;;21.10;31.43;98296.14;262686;1100;114838;-75
2021/04/30 16:58:54;;;;;;;3.30;1.88;;;;;;;20.91;31.54;98308.27;263127;1104;114766;-77
2021/04/30 17:03:57;;;;;;;4.00;1.95;;;;;;;20.70;31.44;98313.47;263424;1099;114607;-82
2021/04/30 17:09:02;;;;;;;5.98;2.73;;;;;;;20.52;31.42;98328.09;263080;1104;114917;-80
2021/04/30 17:14:05;;;;;;;4.13;2.43;;;;;;;20.37;31.74;98340.61;263107;1099;114524;-80
2021/04/30 17:19:08;;;;;;;6.78;2.63;;;;;;;20.23;31.80;98328.67;263150;1104;114902;-76
2021/04/30 17:24:12;;;;;;;6.68;2.40;;;;;;;20.11;32.18;98331.91;263146;1099;115214;-74
2021/04/30 17:29:18;;;;;;;4.67;2.70;;;;;;;20.01;31.96;98332.97;263098;1104;115062;-74
2021/04/30 17:34:21;;;;;;;5.53;2.90;;;;;;;19.95;32.21;98344.45;263454;1098;115048;-86
2021/04/30 17:39:24;;;;;;;7.85;3.23;;;;;;;19.91;32.54;98342.28;263262;1104;114593;-85
2021/04/30 17:44:27;;;;;;;9.10;3.00;;;;;;;19.84;32.53;98353.77;263066;1099;114995;-83
2021/04/30 17:49:31;;;;;;;11.48;3.20;;;;;;;19.77;32.86;98360.02;262910;1104;114791;-84
2021/04/30 17:54:40;;;;;;;9.38;3.38;;;;;;;19.66;32.79;98363.89;263442;1099;115030;-82
2021/04/30 17:59:44;;;;;;;7.63;3.90;;;;;;;19.62;33.85;98368.75;263072;1105;114821;-82
2021/04/30 18:04:47;;;;;;;6.30;3.23;;;;;;;19.59;34.10;98381.74;263384;1099;114934;-74
2021/04/30 18:09:50;;;;;;;7.63;3.80;;;;;;;19.54;33.88;98390.36;263041;1104;114673;-81
2021/04/30 18:14:54;;;;;;;13.40;4.83;;;;;;;19.51;34.68;98397.95;263072;1099;114805;-84
2021/04/30 18:19:57;;;;;;;22.27;6.60;;;;;;;19.51;34.80;98406.05;263057;1104;173833;-76
2021/04/30 18:25:00;;;;;;;12.50;4.03;;;;;;;19.45;34.43;98407.55;263401;1099;114555;-68
2021/04/30 18:30:07;;;;;;;13.25;4.93;;;;;;;19.30;34.23;98415.47;263513;1104;115420;-69
2021/04/30 18:35:11;;;;;;;19.50;4.00;;;;;;;19.13;34.46;98414.59;263045;1099;129060;-73
2021/04/30 18:40:29;;;;;;;23.28;7.08;;;;;;;19.10;36.08;98430.25;262747;1104;114931;-77
2021/04/30 18:45:32;;;;;;;17.30;4.88;;;;;;;18.94;35.55;98433.73;262990;1104;115249;-67
2021/04/30 18:50:44;;;;;;;18.35;4.40;;;;;;;18.62;35.82;98451.44;263159;1104;114584;-77
2021/04/30 18:55:48;;;;;;;21.50;5.53;;;;;;;18.33;36.11;98462.53;262573;1100;114771;-68
2021/04/30 19:00:51;;;;;;;31.53;5.95;;;;;;;18.07;36.27;98458.98;263083;1104;115078;-69
2021/04/30 19:05:54;;;;;;;20.85;7.20;;;;;;;17.86;37.51;98462.86;263476;1099;114663;-70
2021/04/30 19:10:58;;;;;;;21.83;5.45;;;;;;;17.66;37.79;98461.30;263140;1104;114956;-77
2021/04/30 19:16:02;;;;;;;19.65;5.53;;;;;;;17.46;38.46;98471.39;262931;1099;114574;-73
2021/04/30 19:21:12;;;;;;;22.90;5.30;;;;;;;17.25;38.95;98485.97;263079;1104;115090;-78
2021/04/30 19:26:18;;;;;;;22.20;6.18;;;;;;;17.07;39.58;98486.92;262804;1100;115146;-81
2021/04/30 19:31:21;;;;;;;26.93;6.68;;;;;;;16.92;39.84;98492.80;263114;1104;114878;-81
2021/04/30 19:36:24;;;;;;;18.25;5.75;;;;;;;16.77;40.48;98486.20;263021;1104;114929;-80
2021/04/30 19:41:27;;;;;;;20.28;7.75;;;;;;;16.63;41.07;98492.88;262916;1104;115187;-79
2021/04/30 19:46:31;;;;;;;27.75;10.20;;;;;;;16.51;41.07;98499.44;263149;1099;114903;-76
2021/04/30 19:51:35;;;;;;;24.10;12.10;;;;;;;16.48;41.09;98518.53;263109;1104;115200;-77
2021/04/30 19:56:38;;;;;;;23.83;12.65;;;;;;;16.46;41.09;98525.88;263442;1099;115265;-81
2021/04/30 20:01:41;;;;;;;21.55;12.40;;;;;;;16.45;41.07;98519.66;263172;1104;115626;-85
2021/04/30 20:06:44;;;;;;;15.88;10.15;;;;;;;16.42;41.05;98521.79;263109;1099;116227;-79
2021/04/30 20:11:48;;;;;;;17.85;10.83;;;;;;;16.38;41.09;98515.02;263445;1104;115487;-83
2021/04/30 20:16:51;;;;;;;161.10;109.43;;;;;;;17.05;44.47;98519.34;263063;1099;115213;-80
2021/04/30 20:21:57;;;;;;;89.38;58.18;;;;;;;17.71;44.24;98513.67;263454;1104;115343;-82
2021/04/30 20:27:05;;;;;;;17.60;10.05;;;;;;;17.79;41.35;98520.16;263474;1104;114940;-77
2021/04/30 20:32:12;;;;;;;19.93;9.90;;;;;;;17.46;40.93;98520.66;263079;1104;115595;-81
2021/04/30 20:37:17;;;;;;;14.80;10.13;;;;;;;17.11;40.87;98515.19;262671;1098;114478;-80
2021/04/30 20:42:27;;;;;;;16.98;9.70;;;;;;;16.79;40.68;98527.22;263213;1104;115071;-81
2021/04/30 20:47:42;;;;;;;15.55;10.63;;;;;;;16.52;41.02;98536.88;263189;1100;114812;-77
2021/04/30 20:52:50;;;;;;;15.00;9.95;;;;;;;16.31;41.15;98542.44;263179;1105;114795;-76
2021/04/30 20:58:02;;;;;;;16.18;9.23;;;;;;;16.14;41.28;98526.22;262302;1100;114874;-78
2021/04/30 21:03:06;;;;;;;14.48;10.05;;;;;;;16.00;41.41;98535.56;263144;1104;114967;-81
2021/04/30 21:08:10;;;;;;;18.53;9.70;;;;;;;15.89;41.42;98541.89;263132;1099;114978;-82
2021/04/30 21:18:35;;;;;;;12.88;8.75;;;;;;;15.63;41.42;98536.22;263226;1099;114416;-80
2021/04/30 21:23:38;;;;;;;12.93;9.60;;;;;;;15.54;41.86;98528.99;263152;1104;114900;-82
2021/04/30 21:28:41;;;;;;;14.40;9.40;;;;;;;15.40;41.92;98549.02;263134;1099;114995;-81
2021/04/30 21:33:45;;;;;;;17.90;9.93;;;;;;;15.25;41.97;98556.60;263136;1104;114481;-79
2021/04/30 21:38:48;;;;;;;13.23;9.73;;;;;;;15.10;42.28;98558.80;263150;1099;114869;-80
2021/04/30 21:43:51;;;;;;;13.83;9.15;;;;;;;14.97;42.40;98558.17;263110;1104;115035;-81
2021/04/30 21:48:54;;;;;;;13.93;9.60;;;;;;;14.86;42.39;98567.16;263121;1099;114893;-80
2021/04/30 21:53:59;;;;;;;17.43;9.88;;;;;;;14.75;42.91;98585.16;262942;1105;114963;-83
2021/04/30 21:59:04;;;;;;;17.03;11.20;;;;;;;15.05;44.36;98582.48;263129;1099;114755;-79
2021/04/30 22:04:12;;;;;;;14.83;10.23;;;;;;;15.01;43.43;98593.59;263517;1104;114763;-80
2021/04/30 22:09:19;;;;;;;16.33;11.20;;;;;;;14.86;43.04;98599.30;263171;1099;115435;-78
2021/04/30 22:14:23;;;;;;;21.63;10.55;;;;;;;14.71;43.28;98611.36;263251;1104;115023;-79
2021/04/30 22:19:27;;;;;;;16.03;11.50;;;;;;;14.85;45.26;98619.05;263103;1099;115495;-82
2021/04/30 22:24:33;;;;;;;20.23;11.80;;;;;;;14.78;43.39;98623.25;263483;1104;114950;-82
2021/04/30 22:29:36;;;;;;;17.88;11.30;;;;;;;14.55;43.66;98617.17;263155;1099;115711;-80
2021/04/30 22:34:39;;;;;;;18.38;10.48;;;;;;;14.32;43.90;98621.75;263450;1104;116484;-80
2021/04/30 22:39:43;;;;;;;18.85;11.68;;;;;;;14.08;43.83;98621.98;263448;1099;115388;-82
2021/04/30 22:44:46;;;;;;;18.15;12.00;;;;;;;13.89;44.68;98625.34;263202;1104;114917;-81
2021/04/30 22:49:49;;;;;;;16.15;11.30;;;;;;;13.73;44.51;98630.25;263129;1104;114980;-81
2021/04/30 22:54:52;;;;;;;15.85;11.08;;;;;;;13.59;45.32;98622.50;263234;1104;115207;-81
2021/04/30 22:59:55;;;;;;;19.53;11.68;;;;;;;13.48;45.22;98626.02;263152;1105;114945;-82
2021/04/30 23:04:58;;;;;;;14.80;11.48;;;;;;;13.36;45.57;98630.55;262997;1100;115282;-82
2021/04/30 23:10:01;;;;;;;17.33;11.65;;;;;;;13.24;45.56;98634.18;262810;1104;114976;-82